Capitol Logistics 2677

Operating for CKS



PANC
Ted Stevens Anchorage International Airport
Anchorage, Alaska
KJFK
John F Kennedy International Airport
New York, New York

Activity Log

Date Flight Route Aircraft Duration
No Flights Yet

Route Details

Aircraft Information
Group: Large Widebodies
Types: B744,MD11
Route Data
Demand: H
Distance: 2938nm
Duration: 6h 33m
Recm'd Route: ANC TED J511 GKN J124 ORT NCA17 TIBOY 6300N/13000W 6200N/12000W 6100N/11000W 5900N/10000W 5500N/09000W 5000N/08000W YVO MSS ALB J37 IGN IGN1
Origin Wx: PANC 252155Z 20005KT 3SM R07R/2600VP6000FT -SN BR BKN030 OVC047 00/M03 A3005 RMK AO2 P0000 T00001033
Dest. Wx: KJFK 252151Z 33011KT 10SM FEW049 FEW065 SCT250 04/M05 A3001 RMK AO2 SLP162 T00391050
Notes:

Financial History
Total Freight: 0lbs
Average Load: 0lbs/flt
Fuel Used: 0lbs
Avg. Fuel Used: 0lbs/flt
Fuel Expense: $0
Avg. Fuel Expense: $0
Avg. Fuel Cost: $0/lbs
Total Gross Income: $0
Pilot Pay: $0
Total Expenses: $0
Total Revenue: $0
Average Revenue: $0